sensor_id;sensor_type;location;lat;lon;timestamp;P1;durP1;ratioP1;P2;durP2;ratioP2
41556;SDS011;27720;51.992;5.890;2023-07-20T00:01:23;1.85;;;1.20;;
41556;SDS011;27720;51.992;5.890;2023-07-20T00:03:49;1.73;;;1.08;;
41556;SDS011;27720;51.992;5.890;2023-07-20T00:06:23;2.97;;;1.42;;
41556;SDS011;27720;51.992;5.890;2023-07-20T00:08:56;2.08;;;1.10;;
41556;SDS011;27720;51.992;5.890;2023-07-20T00:11:25;2.28;;;1.23;;
41556;SDS011;27720;51.992;5.890;2023-07-20T00:13:52;1.88;;;1.35;;
41556;SDS011;27720;51.992;5.890;2023-07-20T00:16:18;1.60;;;1.00;;
41556;SDS011;27720;51.992;5.890;2023-07-20T00:18:44;2.30;;;1.08;;
41556;SDS011;27720;51.992;5.890;2023-07-20T00:21:09;2.00;;;1.40;;
41556;SDS011;27720;51.992;5.890;2023-07-20T00:23:35;2.28;;;1.25;;
41556;SDS011;27720;51.992;5.890;2023-07-20T00:26:01;2.83;;;1.35;;
41556;SDS011;27720;51.992;5.890;2023-07-20T00:28:27;3.38;;;1.27;;
41556;SDS011;27720;51.992;5.890;2023-07-20T00:30:53;2.83;;;1.40;;
41556;SDS011;27720;51.992;5.890;2023-07-20T00:33:19;3.00;;;1.45;;
41556;SDS011;27720;51.992;5.890;2023-07-20T00:35:44;3.10;;;1.33;;
41556;SDS011;27720;51.992;5.890;2023-07-20T00:38:10;1.63;;;1.05;;
41556;SDS011;27720;51.992;5.890;2023-07-20T00:40:37;3.75;;;1.30;;
41556;SDS011;27720;51.992;5.890;2023-07-20T00:43:03;2.92;;;1.00;;
41556;SDS011;27720;51.992;5.890;2023-07-20T00:45:29;1.98;;;1.20;;
41556;SDS011;27720;51.992;5.890;2023-07-20T00:47:54;4.03;;;1.77;;
41556;SDS011;27720;51.992;5.890;2023-07-20T00:50:21;2.17;;;1.35;;
41556;SDS011;27720;51.992;5.890;2023-07-20T00:52:47;2.00;;;1.20;;
41556;SDS011;27720;51.992;5.890;2023-07-20T00:55:14;1.95;;;1.08;;
41556;SDS011;27720;51.992;5.890;2023-07-20T00:57:40;1.95;;;1.08;;
41556;SDS011;27720;51.992;5.890;2023-07-20T01:00:07;1.88;;;1.17;;
41556;SDS011;27720;51.992;5.890;2023-07-20T01:02:33;2.10;;;1.10;;
41556;SDS011;27720;51.992;5.890;2023-07-20T01:04:59;2.95;;;1.25;;
41556;SDS011;27720;51.992;5.890;2023-07-20T01:07:32;1.75;;;1.20;;
41556;SDS011;27720;51.992;5.890;2023-07-20T01:12:39;1.85;;;0.93;;
41556;SDS011;27720;51.992;5.890;2023-07-20T01:15:08;1.67;;;0.85;;
41556;SDS011;27720;51.992;5.890;2023-07-20T01:17:34;2.13;;;1.15;;
41556;SDS011;27720;51.992;5.890;2023-07-20T01:20:00;1.88;;;0.90;;
41556;SDS011;27720;51.992;5.890;2023-07-20T01:28:22;1.75;;;0.80;;
41556;SDS011;27720;51.992;5.890;2023-07-20T01:33:52;2.22;;;1.20;;
41556;SDS011;27720;51.992;5.890;2023-07-20T01:36:19;1.50;;;0.90;;
41556;SDS011;27720;51.992;5.890;2023-07-20T01:38:47;1.10;;;0.80;;
41556;SDS011;27720;51.992;5.890;2023-07-20T01:41:13;1.23;;;0.63;;
41556;SDS011;27720;51.992;5.890;2023-07-20T01:43:40;0.88;;;0.80;;
41556;SDS011;27720;51.992;5.890;2023-07-20T01:46:06;2.55;;;0.80;;
41556;SDS011;27720;51.992;5.890;2023-07-20T01:48:31;1.02;;;0.85;;
41556;SDS011;27720;51.992;5.890;2023-07-20T01:50:57;1.70;;;1.08;;
41556;SDS011;27720;51.992;5.890;2023-07-20T01:53:23;1.80;;;1.00;;
41556;SDS011;27720;51.992;5.890;2023-07-20T01:55:49;2.17;;;1.08;;
41556;SDS011;27720;51.992;5.890;2023-07-20T01:58:15;1.75;;;1.00;;
41556;SDS011;27720;51.992;5.890;2023-07-20T02:00:40;2.22;;;0.88;;
41556;SDS011;27720;51.992;5.890;2023-07-20T02:03:06;2.58;;;0.75;;
41556;SDS011;27720;51.992;5.890;2023-07-20T02:05:32;1.88;;;1.10;;
41556;SDS011;27720;51.992;5.890;2023-07-20T02:07:58;2.22;;;1.27;;
41556;SDS011;27720;51.992;5.890;2023-07-20T02:10:23;1.52;;;0.93;;
41556;SDS011;27720;51.992;5.890;2023-07-20T02:12:49;1.33;;;0.90;;
41556;SDS011;27720;51.992;5.890;2023-07-20T02:15:15;2.15;;;0.82;;
41556;SDS011;27720;51.992;5.890;2023-07-20T02:17:42;1.80;;;0.80;;
41556;SDS011;27720;51.992;5.890;2023-07-20T02:20:08;1.05;;;0.70;;
41556;SDS011;27720;51.992;5.890;2023-07-20T02:22:37;1.70;;;0.80;;
41556;SDS011;27720;51.992;5.890;2023-07-20T02:25:07;1.50;;;0.70;;
41556;SDS011;27720;51.992;5.890;2023-07-20T02:27:33;2.97;;;0.80;;
41556;SDS011;27720;51.992;5.890;2023-07-20T02:30:00;2.13;;;0.93;;
41556;SDS011;27720;51.992;5.890;2023-07-20T02:32:25;0.82;;;0.60;;
41556;SDS011;27720;51.992;5.890;2023-07-20T02:34:52;1.50;;;0.68;;
41556;SDS011;27720;51.992;5.890;2023-07-20T02:37:17;1.35;;;0.85;;
41556;SDS011;27720;51.992;5.890;2023-07-20T02:39:43;1.10;;;0.68;;
41556;SDS011;27720;51.992;5.890;2023-07-20T02:42:09;2.20;;;0.90;;
41556;SDS011;27720;51.992;5.890;2023-07-20T02:44:35;0.70;;;0.60;;
41556;SDS011;27720;51.992;5.890;2023-07-20T02:47:00;1.55;;;0.82;;
41556;SDS011;27720;51.992;5.890;2023-07-20T02:49:27;0.80;;;0.60;;
41556;SDS011;27720;51.992;5.890;2023-07-20T02:51:53;1.65;;;0.70;;
41556;SDS011;27720;51.992;5.890;2023-07-20T02:54:19;1.95;;;0.90;;
41556;SDS011;27720;51.992;5.890;2023-07-20T02:56:46;1.17;;;0.70;;
41556;SDS011;27720;51.992;5.890;2023-07-20T02:59:11;2.03;;;0.70;;
41556;SDS011;27720;51.992;5.890;2023-07-20T03:01:37;1.25;;;0.73;;
41556;SDS011;27720;51.992;5.890;2023-07-20T08:23:55;0.50;;;0.50;;
41556;SDS011;27720;51.992;5.890;2023-07-20T08:26:24;0.60;;;0.20;;
41556;SDS011;27720;51.992;5.890;2023-07-20T08:28:50;0.30;;;0.30;;
41556;SDS011;27720;51.992;5.890;2023-07-20T08:31:15;2.92;;;0.32;;
41556;SDS011;27720;51.992;5.890;2023-07-20T08:33:41;0.55;;;0.25;;
41556;SDS011;27720;51.992;5.890;2023-07-20T08:36:07;1.00;;;0.90;;
41556;SDS011;27720;51.992;5.890;2023-07-20T08:38:34;0.15;;;0.15;;
41556;SDS011;27720;51.992;5.890;2023-07-20T08:40:59;0.10;;;0.10;;
41556;SDS011;27720;51.992;5.890;2023-07-20T08:43:27;0.63;;;0.22;;
41556;SDS011;27720;51.992;5.890;2023-07-20T08:45:56;1.65;;;0.28;;
41556;SDS011;27720;51.992;5.890;2023-07-20T08:48:22;0.20;;;0.20;;
41556;SDS011;27720;51.992;5.890;2023-07-20T08:50:49;0.90;;;0.20;;
41556;SDS011;27720;51.992;5.890;2023-07-20T08:53:17;0.10;;;0.10;;
41556;SDS011;27720;51.992;5.890;2023-07-20T08:55:46;0.63;;;0.40;;
41556;SDS011;27720;51.992;5.890;2023-07-20T08:58:15;0.40;;;0.20;;
41556;SDS011;27720;51.992;5.890;2023-07-20T09:00:42;0.30;;;0.20;;
41556;SDS011;27720;51.992;5.890;2023-07-20T09:03:08;0.68;;;0.30;;
41556;SDS011;27720;51.992;5.890;2023-07-20T09:05:35;0.90;;;0.30;;
41556;SDS011;27720;51.992;5.890;2023-07-20T09:08:05;0.50;;;0.30;;
41556;SDS011;27720;51.992;5.890;2023-07-20T09:10:32;0.68;;;0.20;;
41556;SDS011;27720;51.992;5.890;2023-07-20T09:12:57;0.47;;;0.22;;
41556;SDS011;27720;51.992;5.890;2023-07-20T09:15:23;1.05;;;0.20;;
41556;SDS011;27720;51.992;5.890;2023-07-20T09:17:50;0.28;;;0.20;;
41556;SDS011;27720;51.992;5.890;2023-07-20T09:20:18;0.85;;;0.25;;
41556;SDS011;27720;51.992;5.890;2023-07-20T09:22:45;0.30;;;0.30;;
41556;SDS011;27720;51.992;5.890;2023-07-20T09:25:15;0.20;;;0.20;;
41556;SDS011;27720;51.992;5.890;2023-07-20T09:27:42;0.88;;;0.28;;
41556;SDS011;27720;51.992;5.890;2023-07-20T09:30:10;2.05;;;0.20;;
41556;SDS011;27720;51.992;5.890;2023-07-20T09:32:45;0.57;;;0.20;;
41556;SDS011;27720;51.992;5.890;2023-07-20T09:35:13;0.70;;;0.20;;
41556;SDS011;27720;51.992;5.890;2023-07-20T09:40:25;0.10;;;0.10;;
41556;SDS011;27720;51.992;5.890;2023-07-20T09:42:52;0.43;;;0.10;;
41556;SDS011;27720;51.992;5.890;2023-07-20T09:45:34;0.30;;;0.30;;
41556;SDS011;27720;51.992;5.890;2023-07-20T09:48:04;1.48;;;0.32;;
41556;SDS011;27720;51.992;5.890;2023-07-20T09:50:38;0.30;;;0.28;;
41556;SDS011;27720;51.992;5.890;2023-07-20T09:53:09;0.90;;;0.28;;
41556;SDS011;27720;51.992;5.890;2023-07-20T09:55:38;0.20;;;0.10;;
41556;SDS011;27720;51.992;5.890;2023-07-20T09:58:05;1.30;;;0.20;;
41556;SDS011;27720;51.992;5.890;2023-07-20T10:00:32;0.90;;;0.30;;
41556;SDS011;27720;51.992;5.890;2023-07-20T10:03:00;1.27;;;0.28;;
41556;SDS011;27720;51.992;5.890;2023-07-20T10:05:31;0.10;;;0.10;;
41556;SDS011;27720;51.992;5.890;2023-07-20T10:07:59;0.20;;;0.10;;
41556;SDS011;27720;51.992;5.890;2023-07-20T10:10:27;0.20;;;0.10;;
41556;SDS011;27720;51.992;5.890;2023-07-20T10:12:55;0.52;;;0.30;;
41556;SDS011;27720;51.992;5.890;2023-07-20T10:15:31;2.10;;;0.30;;
41556;SDS011;27720;51.992;5.890;2023-07-20T10:20:39;0.30;;;0.20;;
41556;SDS011;27720;51.992;5.890;2023-07-20T10:23:09;0.60;;;0.30;;
41556;SDS011;27720;51.992;5.890;2023-07-20T10:25:35;0.38;;;0.13;;
41556;SDS011;27720;51.992;5.890;2023-07-20T10:28:06;0.20;;;0.20;;
41556;SDS011;27720;51.992;5.890;2023-07-20T10:30:35;1.23;;;0.30;;
41556;SDS011;27720;51.992;5.890;2023-07-20T10:35:29;0.47;;;0.20;;
41556;SDS011;27720;51.992;5.890;2023-07-20T10:38:02;0.88;;;0.30;;
41556;SDS011;27720;51.992;5.890;2023-07-20T10:40:30;1.35;;;0.30;;
41556;SDS011;27720;51.992;5.890;2023-07-20T10:43:01;0.50;;;0.22;;
41556;SDS011;27720;51.992;5.890;2023-07-20T10:48:15;0.20;;;0.10;;
41556;SDS011;27720;51.992;5.890;2023-07-20T10:50:42;0.40;;;0.30;;
41556;SDS011;27720;51.992;5.890;2023-07-20T10:53:18;0.43;;;0.20;;
41556;SDS011;27720;51.992;5.890;2023-07-20T10:55:44;0.40;;;0.20;;
41556;SDS011;27720;51.992;5.890;2023-07-20T10:58:14;0.30;;;0.20;;
41556;SDS011;27720;51.992;5.890;2023-07-20T11:03:43;0.70;;;0.30;;
41556;SDS011;27720;51.992;5.890;2023-07-20T11:09:07;0.45;;;0.20;;
41556;SDS011;27720;51.992;5.890;2023-07-20T11:11:36;0.52;;;0.20;;
41556;SDS011;27720;51.992;5.890;2023-07-20T11:14:07;0.52;;;0.30;;
41556;SDS011;27720;51.992;5.890;2023-07-20T11:16:43;0.85;;;0.25;;
41556;SDS011;27720;51.992;5.890;2023-07-20T11:19:15;1.38;;;0.40;;
41556;SDS011;27720;51.992;5.890;2023-07-20T11:21:42;0.63;;;0.17;;
41556;SDS011;27720;51.992;5.890;2023-07-20T11:29:08;0.20;;;0.17;;
41556;SDS011;27720;51.992;5.890;2023-07-20T11:31:38;0.38;;;0.28;;
41556;SDS011;27720;51.992;5.890;2023-07-20T11:34:10;0.17;;;0.15;;
41556;SDS011;27720;51.992;5.890;2023-07-20T11:36:41;0.50;;;0.20;;
41556;SDS011;27720;51.992;5.890;2023-07-20T11:39:09;0.60;;;0.30;;
41556;SDS011;27720;51.992;5.890;2023-07-20T11:41:38;1.48;;;0.22;;
41556;SDS011;27720;51.992;5.890;2023-07-20T11:44:11;0.20;;;0.20;;
41556;SDS011;27720;51.992;5.890;2023-07-20T11:46:41;0.10;;;0.10;;
41556;SDS011;27720;51.992;5.890;2023-07-20T11:49:08;0.40;;;0.20;;
41556;SDS011;27720;51.992;5.890;2023-07-20T11:51:34;0.75;;;0.30;;
41556;SDS011;27720;51.992;5.890;2023-07-20T11:54:01;0.40;;;0.30;;
41556;SDS011;27720;51.992;5.890;2023-07-20T11:56:27;0.20;;;0.20;;
41556;SDS011;27720;51.992;5.890;2023-07-20T11:58:57;1.30;;;0.20;;
41556;SDS011;27720;51.992;5.890;2023-07-20T12:01:28;0.30;;;0.20;;
41556;SDS011;27720;51.992;5.890;2023-07-20T12:03:57;0.52;;;0.20;;
41556;SDS011;27720;51.992;5.890;2023-07-20T12:06:24;0.40;;;0.20;;
41556;SDS011;27720;51.992;5.890;2023-07-20T12:08:56;0.75;;;0.25;;
41556;SDS011;27720;51.992;5.890;2023-07-20T12:11:35;0.35;;;0.20;;
41556;SDS011;27720;51.992;5.890;2023-07-20T12:14:06;0.20;;;0.10;;
41556;SDS011;27720;51.992;5.890;2023-07-20T12:16:32;1.55;;;0.30;;
41556;SDS011;27720;51.992;5.890;2023-07-20T12:19:04;0.82;;;0.20;;
41556;SDS011;27720;51.992;5.890;2023-07-20T12:21:30;0.20;;;0.10;;
41556;SDS011;27720;51.992;5.890;2023-07-20T12:23:57;1.98;;;0.20;;
41556;SDS011;27720;51.992;5.890;2023-07-20T12:26:23;0.30;;;0.20;;
41556;SDS011;27720;51.992;5.890;2023-07-20T12:28:50;1.13;;;0.13;;
41556;SDS011;27720;51.992;5.890;2023-07-20T12:31:16;0.65;;;0.20;;
41556;SDS011;27720;51.992;5.890;2023-07-20T12:33:42;0.43;;;0.17;;
41556;SDS011;27720;51.992;5.890;2023-07-20T12:36:08;0.35;;;0.10;;
41556;SDS011;27720;51.992;5.890;2023-07-20T12:38:35;1.33;;;0.20;;
41556;SDS011;27720;51.992;5.890;2023-07-20T12:41:01;0.20;;;0.15;;
41556;SDS011;27720;51.992;5.890;2023-07-20T12:43:28;0.20;;;0.13;;
41556;SDS011;27720;51.992;5.890;2023-07-20T12:45:55;0.10;;;0.10;;
41556;SDS011;27720;51.992;5.890;2023-07-20T12:48:21;0.30;;;0.13;;
41556;SDS011;27720;51.992;5.890;2023-07-20T12:50:47;0.20;;;0.20;;
41556;SDS011;27720;51.992;5.890;2023-07-20T12:53:13;0.50;;;0.17;;
41556;SDS011;27720;51.992;5.890;2023-07-20T12:55:39;0.50;;;0.20;;
41556;SDS011;27720;51.992;5.890;2023-07-20T12:58:05;0.40;;;0.30;;
41556;SDS011;27720;51.992;5.890;2023-07-20T13:00:31;0.30;;;0.10;;
41556;SDS011;27720;51.992;5.890;2023-07-20T13:02:57;1.38;;;0.17;;
41556;SDS011;27720;51.992;5.890;2023-07-20T13:05:23;0.60;;;0.20;;
41556;SDS011;27720;51.992;5.890;2023-07-20T13:07:49;0.32;;;0.10;;
41556;SDS011;27720;51.992;5.890;2023-07-20T13:10:15;0.25;;;0.20;;
41556;SDS011;27720;51.992;5.890;2023-07-20T13:12:41;0.52;;;0.17;;
41556;SDS011;27720;51.992;5.890;2023-07-20T13:15:07;0.10;;;0.10;;
41556;SDS011;27720;51.992;5.890;2023-07-20T13:17:37;0.20;;;0.10;;
41556;SDS011;27720;51.992;5.890;2023-07-20T13:20:04;0.40;;;0.10;;
41556;SDS011;27720;51.992;5.890;2023-07-20T13:22:32;0.10;;;0.10;;
41556;SDS011;27720;51.992;5.890;2023-07-20T13:24:59;1.35;;;0.22;;
41556;SDS011;27720;51.992;5.890;2023-07-20T13:27:25;0.43;;;0.20;;
41556;SDS011;27720;51.992;5.890;2023-07-20T13:29:53;0.28;;;0.17;;
41556;SDS011;27720;51.992;5.890;2023-07-20T13:32:19;0.45;;;0.10;;
41556;SDS011;27720;51.992;5.890;2023-07-20T13:34:45;0.30;;;0.10;;
41556;SDS011;27720;51.992;5.890;2023-07-20T13:37:11;0.40;;;0.10;;
41556;SDS011;27720;51.992;5.890;2023-07-20T13:39:37;0.77;;;0.30;;
41556;SDS011;27720;51.992;5.890;2023-07-20T13:42:04;0.40;;;0.17;;
41556;SDS011;27720;51.992;5.890;2023-07-20T13:44:31;0.80;;;0.20;;
41556;SDS011;27720;51.992;5.890;2023-07-20T13:46:57;0.30;;;0.13;;
41556;SDS011;27720;51.992;5.890;2023-07-20T13:49:22;0.10;;;0.10;;
41556;SDS011;27720;51.992;5.890;2023-07-20T13:51:48;0.43;;;0.30;;
41556;SDS011;27720;51.992;5.890;2023-07-20T13:54:14;0.10;;;0.10;;
41556;SDS011;27720;51.992;5.890;2023-07-20T13:56:40;0.75;;;0.30;;
41556;SDS011;27720;51.992;5.890;2023-07-20T13:59:06;0.10;;;0.10;;
41556;SDS011;27720;51.992;5.890;2023-07-20T14:01:32;0.90;;;0.20;;
41556;SDS011;27720;51.992;5.890;2023-07-20T14:03:59;0.50;;;0.20;;
41556;SDS011;27720;51.992;5.890;2023-07-20T14:06:25;0.32;;;0.20;;
41556;SDS011;27720;51.992;5.890;2023-07-20T14:08:54;0.23;;;0.20;;
41556;SDS011;27720;51.992;5.890;2023-07-20T14:11:20;2.78;;;0.30;;
41556;SDS011;27720;51.992;5.890;2023-07-20T14:13:46;0.85;;;0.17;;
41556;SDS011;27720;51.992;5.890;2023-07-20T14:16:11;0.22;;;0.20;;
41556;SDS011;27720;51.992;5.890;2023-07-20T14:18:37;0.85;;;0.30;;
41556;SDS011;27720;51.992;5.890;2023-07-20T14:21:03;1.27;;;0.20;;
41556;SDS011;27720;51.992;5.890;2023-07-20T14:23:30;0.60;;;0.20;;
41556;SDS011;27720;51.992;5.890;2023-07-20T14:25:56;1.63;;;0.98;;
41556;SDS011;27720;51.992;5.890;2023-07-20T14:28:21;1.95;;;1.05;;
41556;SDS011;27720;51.992;5.890;2023-07-20T14:30:47;1.92;;;1.00;;
41556;SDS011;27720;51.992;5.890;2023-07-20T14:33:13;1.30;;;0.63;;
41556;SDS011;27720;51.992;5.890;2023-07-20T14:35:38;1.17;;;0.55;;
41556;SDS011;27720;51.992;5.890;2023-07-20T14:38:04;0.98;;;0.40;;
41556;SDS011;27720;51.992;5.890;2023-07-20T14:40:30;0.70;;;0.32;;
41556;SDS011;27720;51.992;5.890;2023-07-20T14:42:56;0.40;;;0.30;;
41556;SDS011;27720;51.992;5.890;2023-07-20T14:45:21;0.90;;;0.30;;
41556;SDS011;27720;51.992;5.890;2023-07-20T14:47:47;0.52;;;0.25;;
41556;SDS011;27720;51.992;5.890;2023-07-20T14:50:19;0.25;;;0.20;;
41556;SDS011;27720;51.992;5.890;2023-07-20T14:52:45;0.30;;;0.20;;
41556;SDS011;27720;51.992;5.890;2023-07-20T14:55:11;0.20;;;0.20;;
41556;SDS011;27720;51.992;5.890;2023-07-20T14:57:37;0.35;;;0.20;;
41556;SDS011;27720;51.992;5.890;2023-07-20T15:00:03;1.00;;;0.10;;
41556;SDS011;27720;51.992;5.890;2023-07-20T15:02:35;0.65;;;0.17;;
41556;SDS011;27720;51.992;5.890;2023-07-20T15:05:03;0.95;;;0.20;;
41556;SDS011;27720;51.992;5.890;2023-07-20T15:07:31;0.47;;;0.30;;
41556;SDS011;27720;51.992;5.890;2023-07-20T15:09:57;0.52;;;0.20;;
41556;SDS011;27720;51.992;5.890;2023-07-20T15:12:23;0.30;;;0.20;;
41556;SDS011;27720;51.992;5.890;2023-07-20T15:15:02;0.43;;;0.30;;
41556;SDS011;27720;51.992;5.890;2023-07-20T15:17:30;0.22;;;0.20;;
41556;SDS011;27720;51.992;5.890;2023-07-20T15:19:56;0.40;;;0.20;;
41556;SDS011;27720;51.992;5.890;2023-07-20T15:22:22;0.93;;;0.10;;
41556;SDS011;27720;51.992;5.890;2023-07-20T15:24:48;1.27;;;0.20;;
41556;SDS011;27720;51.992;5.890;2023-07-20T15:27:14;0.63;;;0.20;;
41556;SDS011;27720;51.992;5.890;2023-07-20T15:29:39;0.57;;;0.30;;
41556;SDS011;27720;51.992;5.890;2023-07-20T15:32:06;0.47;;;0.20;;
41556;SDS011;27720;51.992;5.890;2023-07-20T15:34:33;0.68;;;0.30;;
41556;SDS011;27720;51.992;5.890;2023-07-20T15:36:59;0.57;;;0.22;;
41556;SDS011;27720;51.992;5.890;2023-07-20T15:39:25;1.20;;;0.20;;
41556;SDS011;27720;51.992;5.890;2023-07-20T15:41:52;0.60;;;0.20;;
41556;SDS011;27720;51.992;5.890;2023-07-20T15:44:18;0.77;;;0.38;;
41556;SDS011;27720;51.992;5.890;2023-07-20T15:46:45;1.08;;;0.57;;
41556;SDS011;27720;51.992;5.890;2023-07-20T15:49:13;1.33;;;0.70;;
41556;SDS011;27720;51.992;5.890;2023-07-20T15:51:39;1.15;;;0.60;;
41556;SDS011;27720;51.992;5.890;2023-07-20T15:54:10;0.43;;;0.30;;
41556;SDS011;27720;51.992;5.890;2023-07-20T15:56:40;0.73;;;0.30;;
41556;SDS011;27720;51.992;5.890;2023-07-20T15:59:09;0.40;;;0.20;;
41556;SDS011;27720;51.992;5.890;2023-07-20T16:01:35;0.77;;;0.30;;
41556;SDS011;27720;51.992;5.890;2023-07-20T16:04:02;0.30;;;0.25;;
41556;SDS011;27720;51.992;5.890;2023-07-20T16:06:28;0.28;;;0.20;;
41556;SDS011;27720;51.992;5.890;2023-07-20T16:08:54;0.70;;;0.25;;
41556;SDS011;27720;51.992;5.890;2023-07-20T16:11:20;0.28;;;0.17;;
41556;SDS011;27720;51.992;5.890;2023-07-20T16:13:49;0.47;;;0.20;;
41556;SDS011;27720;51.992;5.890;2023-07-20T16:16:15;2.13;;;0.32;;
41556;SDS011;27720;51.992;5.890;2023-07-20T16:18:41;0.50;;;0.47;;
41556;SDS011;27720;51.992;5.890;2023-07-20T16:21:07;0.15;;;0.10;;
41556;SDS011;27720;51.992;5.890;2023-07-20T16:23:33;1.65;;;0.40;;
41556;SDS011;27720;51.992;5.890;2023-07-20T16:25:59;0.55;;;0.28;;
41556;SDS011;27720;51.992;5.890;2023-07-20T16:28:25;0.70;;;0.30;;
41556;SDS011;27720;51.992;5.890;2023-07-20T16:30:51;0.47;;;0.30;;
41556;SDS011;27720;51.992;5.890;2023-07-20T16:33:17;1.13;;;0.20;;
41556;SDS011;27720;51.992;5.890;2023-07-20T16:35:43;0.52;;;0.20;;
41556;SDS011;27720;51.992;5.890;2023-07-20T16:38:09;1.50;;;0.25;;
41556;SDS011;27720;51.992;5.890;2023-07-20T16:40:36;0.30;;;0.20;;
41556;SDS011;27720;51.992;5.890;2023-07-20T16:43:02;0.50;;;0.30;;
41556;SDS011;27720;51.992;5.890;2023-07-20T16:45:28;0.40;;;0.30;;
41556;SDS011;27720;51.992;5.890;2023-07-20T16:47:54;0.20;;;0.20;;
41556;SDS011;27720;51.992;5.890;2023-07-20T16:50:20;0.77;;;0.40;;
41556;SDS011;27720;51.992;5.890;2023-07-20T16:52:47;0.43;;;0.20;;
41556;SDS011;27720;51.992;5.890;2023-07-20T16:55:13;0.25;;;0.20;;
41556;SDS011;27720;51.992;5.890;2023-07-20T16:57:39;1.63;;;0.30;;
41556;SDS011;27720;51.992;5.890;2023-07-20T17:00:05;0.32;;;0.20;;
41556;SDS011;27720;51.992;5.890;2023-07-20T17:02:35;1.30;;;0.22;;
41556;SDS011;27720;51.992;5.890;2023-07-20T17:05:02;0.30;;;0.17;;
41556;SDS011;27720;51.992;5.890;2023-07-20T17:07:28;0.85;;;0.20;;
41556;SDS011;27720;51.992;5.890;2023-07-20T17:09:54;0.40;;;0.20;;
41556;SDS011;27720;51.992;5.890;2023-07-20T17:12:20;0.22;;;0.20;;
41556;SDS011;27720;51.992;5.890;2023-07-20T17:14:46;0.35;;;0.20;;
41556;SDS011;27720;51.992;5.890;2023-07-20T17:17:12;0.38;;;0.20;;
41556;SDS011;27720;51.992;5.890;2023-07-20T17:19:39;0.45;;;0.30;;
41556;SDS011;27720;51.992;5.890;2023-07-20T17:22:04;0.25;;;0.20;;
41556;SDS011;27720;51.992;5.890;2023-07-20T17:24:30;0.50;;;0.30;;
41556;SDS011;27720;51.992;5.890;2023-07-20T17:26:56;0.77;;;0.28;;
41556;SDS011;27720;51.992;5.890;2023-07-20T17:29:22;1.70;;;0.20;;
41556;SDS011;27720;51.992;5.890;2023-07-20T17:31:48;0.25;;;0.13;;
41556;SDS011;27720;51.992;5.890;2023-07-20T17:34:14;0.77;;;0.20;;
41556;SDS011;27720;51.992;5.890;2023-07-20T17:36:40;0.63;;;0.30;;
41556;SDS011;27720;51.992;5.890;2023-07-20T17:39:06;0.30;;;0.20;;
41556;SDS011;27720;51.992;5.890;2023-07-20T17:41:31;0.20;;;0.20;;
41556;SDS011;27720;51.992;5.890;2023-07-20T17:43:57;0.30;;;0.25;;
41556;SDS011;27720;51.992;5.890;2023-07-20T17:46:23;0.35;;;0.20;;
41556;SDS011;27720;51.992;5.890;2023-07-20T17:48:49;0.38;;;0.30;;
41556;SDS011;27720;51.992;5.890;2023-07-20T17:51:15;0.30;;;0.20;;
41556;SDS011;27720;51.992;5.890;2023-07-20T17:53:41;1.38;;;0.30;;
41556;SDS011;27720;51.992;5.890;2023-07-20T17:56:07;0.40;;;0.20;;
41556;SDS011;27720;51.992;5.890;2023-07-20T17:58:33;0.40;;;0.30;;
41556;SDS011;27720;51.992;5.890;2023-07-20T18:00:59;0.60;;;0.40;;
41556;SDS011;27720;51.992;5.890;2023-07-20T18:03:25;0.32;;;0.30;;
41556;SDS011;27720;51.992;5.890;2023-07-20T18:05:51;0.63;;;0.20;;
41556;SDS011;27720;51.992;5.890;2023-07-20T18:08:17;0.25;;;0.20;;
41556;SDS011;27720;51.992;5.890;2023-07-20T18:10:43;0.40;;;0.30;;
41556;SDS011;27720;51.992;5.890;2023-07-20T18:13:09;0.20;;;0.20;;
41556;SDS011;27720;51.992;5.890;2023-07-20T18:15:35;0.40;;;0.25;;
41556;SDS011;27720;51.992;5.890;2023-07-20T18:18:00;0.35;;;0.22;;
41556;SDS011;27720;51.992;5.890;2023-07-20T18:20:26;0.40;;;0.20;;
41556;SDS011;27720;51.992;5.890;2023-07-20T18:22:52;0.30;;;0.20;;
41556;SDS011;27720;51.992;5.890;2023-07-20T18:25:19;1.30;;;0.40;;
41556;SDS011;27720;51.992;5.890;2023-07-20T18:27:46;0.50;;;0.20;;
41556;SDS011;27720;51.992;5.890;2023-07-20T18:30:13;2.88;;;0.40;;
41556;SDS011;27720;51.992;5.890;2023-07-20T18:32:43;0.50;;;0.30;;
41556;SDS011;27720;51.992;5.890;2023-07-20T18:35:10;0.43;;;0.20;;
41556;SDS011;27720;51.992;5.890;2023-07-20T18:37:39;0.32;;;0.13;;
41556;SDS011;27720;51.992;5.890;2023-07-20T18:40:05;0.68;;;0.30;;
41556;SDS011;27720;51.992;5.890;2023-07-20T18:42:33;0.20;;;0.10;;
41556;SDS011;27720;51.992;5.890;2023-07-20T18:45:06;0.40;;;0.20;;
41556;SDS011;27720;51.992;5.890;2023-07-20T18:47:32;0.47;;;0.30;;
41556;SDS011;27720;51.992;5.890;2023-07-20T18:49:57;0.57;;;0.30;;
41556;SDS011;27720;51.992;5.890;2023-07-20T18:52:23;0.40;;;0.20;;
41556;SDS011;27720;51.992;5.890;2023-07-20T18:54:49;1.50;;;0.10;;
41556;SDS011;27720;51.992;5.890;2023-07-20T18:57:15;0.52;;;0.20;;
41556;SDS011;27720;51.992;5.890;2023-07-20T18:59:41;0.40;;;0.20;;
41556;SDS011;27720;51.992;5.890;2023-07-20T19:02:07;0.77;;;0.30;;
41556;SDS011;27720;51.992;5.890;2023-07-20T19:04:33;0.60;;;0.30;;
41556;SDS011;27720;51.992;5.890;2023-07-20T19:07:00;0.38;;;0.30;;
41556;SDS011;27720;51.992;5.890;2023-07-20T19:09:25;1.42;;;0.38;;
41556;SDS011;27720;51.992;5.890;2023-07-20T19:11:51;1.83;;;0.20;;
41556;SDS011;27720;51.992;5.890;2023-07-20T19:14:17;1.40;;;0.38;;
41556;SDS011;27720;51.992;5.890;2023-07-20T19:16:44;0.20;;;0.20;;
41556;SDS011;27720;51.992;5.890;2023-07-20T19:19:10;0.68;;;0.20;;
41556;SDS011;27720;51.992;5.890;2023-07-20T19:21:36;0.52;;;0.30;;
41556;SDS011;27720;51.992;5.890;2023-07-20T19:24:02;0.60;;;0.40;;
41556;SDS011;27720;51.992;5.890;2023-07-20T19:26:28;0.60;;;0.40;;
41556;SDS011;27720;51.992;5.890;2023-07-20T19:28:54;0.68;;;0.50;;
41556;SDS011;27720;51.992;5.890;2023-07-20T19:31:19;0.60;;;0.40;;
41556;SDS011;27720;51.992;5.890;2023-07-20T19:33:45;0.65;;;0.50;;
41556;SDS011;27720;51.992;5.890;2023-07-20T19:36:11;0.60;;;0.30;;
41556;SDS011;27720;51.992;5.890;2023-07-20T19:38:37;1.10;;;0.50;;
41556;SDS011;27720;51.992;5.890;2023-07-20T19:41:03;0.88;;;0.40;;
41556;SDS011;27720;51.992;5.890;2023-07-20T19:43:30;0.70;;;0.40;;
41556;SDS011;27720;51.992;5.890;2023-07-20T19:45:57;0.85;;;0.50;;
41556;SDS011;27720;51.992;5.890;2023-07-20T19:48:23;0.88;;;0.50;;
41556;SDS011;27720;51.992;5.890;2023-07-20T19:50:49;0.50;;;0.40;;
41556;SDS011;27720;51.992;5.890;2023-07-20T19:53:16;1.70;;;0.57;;
41556;SDS011;27720;51.992;5.890;2023-07-20T19:55:42;1.30;;;0.60;;
41556;SDS011;27720;51.992;5.890;2023-07-20T19:58:08;0.50;;;0.40;;
41556;SDS011;27720;51.992;5.890;2023-07-20T20:00:38;0.95;;;0.50;;
41556;SDS011;27720;51.992;5.890;2023-07-20T20:03:07;1.30;;;0.70;;
41556;SDS011;27720;51.992;5.890;2023-07-20T20:05:34;0.90;;;0.50;;
41556;SDS011;27720;51.992;5.890;2023-07-20T20:08:02;2.33;;;0.70;;
41556;SDS011;27720;51.992;5.890;2023-07-20T20:10:33;0.98;;;0.68;;
41556;SDS011;27720;51.992;5.890;2023-07-20T20:13:00;2.05;;;0.68;;
41556;SDS011;27720;51.992;5.890;2023-07-20T20:15:27;1.33;;;0.80;;
41556;SDS011;27720;51.992;5.890;2023-07-20T20:17:56;0.80;;;0.73;;
41556;SDS011;27720;51.992;5.890;2023-07-20T20:20:30;1.20;;;0.55;;
41556;SDS011;27720;51.992;5.890;2023-07-20T20:23:00;1.88;;;0.50;;
41556;SDS011;27720;51.992;5.890;2023-07-20T20:25:26;1.23;;;0.68;;
41556;SDS011;27720;51.992;5.890;2023-07-20T20:27:53;0.55;;;0.40;;
41556;SDS011;27720;51.992;5.890;2023-07-20T20:30:19;1.30;;;0.80;;
41556;SDS011;27720;51.992;5.890;2023-07-20T20:32:49;1.13;;;0.43;;
41556;SDS011;27720;51.992;5.890;2023-07-20T20:35:15;1.10;;;0.60;;
41556;SDS011;27720;51.992;5.890;2023-07-20T20:37:41;2.50;;;0.75;;
41556;SDS011;27720;51.992;5.890;2023-07-20T20:40:07;2.15;;;0.68;;